Time;durP1;ratioP1;P1;durP2;ratioP2;P2;SDS_P1;SDS_P2;PMS_P1;PMS_P2;Temp;Humidity;BMP_temperature;BMP_pressure;BME280_temperature;BME280_humidity;BME280_pressure;Samples;Min_cycle;Max_cycle;Signal;HPM_P1;HPM_P2
2022/05/01 00:01:55;;;;;;;13.35;9.55;;;13.50;92.60;;;;;;5032675;28;20047;-71
2022/05/01 00:05:01;;;;;;;10.20;4.22;;;13.40;92.80;;;;;;5032792;28;20047;-72
2022/05/01 00:08:05;;;;;;;5.65;3.70;;;13.30;92.80;;;;;;5031831;28;20044;-72
2022/05/01 00:11:09;;;;;;;5.82;3.70;;;13.30;93.00;;;;;;5032817;28;20052;-71
2022/05/01 00:14:14;;;;;;;7.85;5.90;;;13.20;93.70;;;;;;5032427;28;20041;-71
2022/05/01 00:17:18;;;;;;;8.43;4.18;;;13.10;94.00;;;;;;5031880;28;20049;-71
2022/05/01 00:20:22;;;;;;;6.88;3.95;;;13.00;94.40;;;;;;5032165;28;20060;-71
2022/05/01 00:23:26;;;;;;;8.07;3.60;;;12.90;94.80;;;;;;5032238;28;20070;-71
2022/05/01 00:26:30;;;;;;;6.93;3.88;;;12.80;95.10;;;;;;5031583;28;20040;-71
2022/05/01 00:29:36;;;;;;;5.95;3.95;;;12.80;95.50;;;;;;5020140;28;20041;-71
2022/05/01 00:39:25;;;;;;;5.57;3.47;;;12.70;96.50;;;;;;5032031;28;20041;-71
2022/05/01 00:42:29;;;;;;;8.63;4.22;;;12.50;97.30;;;;;;5031794;28;20048;-71
2022/05/01 00:45:33;;;;;;;7.75;3.85;;;12.50;97.30;;;;;;5031938;28;20044;-72
2022/05/01 00:48:37;;;;;;;5.13;3.88;;;12.50;97.80;;;;;;5032047;28;20453;-72
2022/05/01 00:51:50;;;;;;;6.75;3.88;;;12.50;98.40;;;;;;5031779;28;20053;-72
2022/05/01 00:54:54;;;;;;;7.57;4.20;;;12.40;98.30;;;;;;5031477;28;20068;-72
2022/05/01 00:58:01;;;;;;;9.55;4.25;;;12.40;98.40;;;;;;5031086;28;20515;-72
2022/05/01 01:01:04;;;;;;;6.10;4.03;;;12.40;98.80;;;;;;5031764;28;20052;-71
2022/05/01 01:04:10;;;;;;;6.80;3.97;;;12.30;99.00;;;;;;5031569;28;20396;-72
2022/05/01 01:07:15;;;;;;;8.35;4.15;;;12.40;98.90;;;;;;5031374;28;20522;-71
2022/05/01 01:10:19;;;;;;;8.45;3.83;;;12.40;99.30;;;;;;5031705;28;20045;-71
2022/05/01 01:13:27;;;;;;;4.93;3.40;;;12.40;98.80;;;;;;5031794;28;20052;-71
2022/05/01 01:16:32;;;;;;;5.03;3.15;;;12.40;98.30;;;;;;5031293;28;20129;-71
2022/05/01 01:19:37;;;;;;;4.20;3.70;;;12.30;97.80;;;;;;5031239;28;20064;-71
2022/05/01 01:22:44;;;;;;;6.30;4.15;;;12.30;98.60;;;;;;5031101;28;20056;-71
2022/05/01 01:25:48;;;;;;;7.53;4.45;;;12.40;99.00;;;;;;5031119;28;20052;-71
2022/05/01 01:28:54;;;;;;;12.93;5.63;;;12.40;99.90;;;;;;5031213;28;20040;-71
2022/05/01 01:31:59;;;;;;;9.27;3.70;;;12.40;99.90;;;;;;5031268;28;20052;-71
2022/05/01 01:35:05;;;;;;;8.95;3.80;;;12.30;99.80;;;;;;5030982;28;20064;-71
2022/05/01 01:38:09;;;;;;;8.60;3.75;;;12.30;99.90;;;;;;5018476;28;20392;-71
2022/05/01 01:41:18;;;;;;;8.55;4.70;;;12.10;99.90;;;;;;5030732;28;20052;-71
2022/05/01 01:44:24;;;;;;;7.45;4.60;;;12.00;99.90;;;;;;5030514;28;20036;-72
2022/05/01 01:47:28;;;;;;;9.90;4.90;;;11.90;99.90;;;;;;5030435;28;20064;-71
2022/05/01 01:50:32;;;;;;;6.47;3.95;;;11.80;99.90;;;;;;5030595;28;20519;-71
2022/05/01 01:53:37;;;;;;;5.65;3.75;;;11.80;99.90;;;;;;5030858;28;20056;-72
2022/05/01 01:56:43;;;;;;;6.00;3.65;;;11.70;99.90;;;;;;5030347;28;20044;-72
2022/05/01 01:59:47;;;;;;;9.77;3.33;;;11.70;99.90;;;;;;5030707;28;20044;-71
2022/05/01 02:03:03;;;;;;;7.30;3.45;;;11.70;99.90;;;;;;5030552;28;20048;-71
2022/05/01 02:06:08;;;;;;;6.22;3.20;;;11.80;99.90;;;;;;5030602;28;20045;-71
2022/05/01 02:09:15;;;;;;;6.22;3.60;;;11.80;99.90;;;;;;5030370;28;20040;-71
2022/05/01 02:12:20;;;;;;;6.07;3.88;;;11.80;99.40;;;;;;5030497;28;20495;-71
2022/05/01 02:15:24;;;;;;;7.70;3.60;;;11.90;99.60;;;;;;5018304;28;20069;-71
2022/05/01 02:18:28;;;;;;;6.45;4.05;;;11.80;99.90;;;;;;5030268;28;20048;-71
2022/05/01 02:21:34;;;;;;;5.72;3.90;;;11.70;99.90;;;;;;5030594;28;20048;-71
2022/05/01 02:24:38;;;;;;;6.43;3.80;;;11.60;99.90;;;;;;5030086;28;20048;-71
2022/05/01 02:27:42;;;;;;;7.78;4.60;;;11.50;99.90;;;;;;5030029;28;20494;-71
2022/05/01 02:30:46;;;;;;;7.75;3.97;;;11.50;99.90;;;;;;5030350;28;20053;-71
2022/05/01 02:33:50;;;;;;;9.48;4.03;;;11.50;99.90;;;;;;5030225;28;20060;-71
2022/05/01 02:36:55;;;;;;;7.78;3.72;;;11.50;99.90;;;;;;5029870;28;20060;-71
2022/05/01 02:39:59;;;;;;;4.97;3.50;;;11.50;99.90;;;;;;5017601;28;20041;-71
2022/05/01 02:43:05;;;;;;;6.97;4.43;;;11.50;99.90;;;;;;5030415;28;20052;-71
2022/05/01 02:46:09;;;;;;;7.53;4.43;;;11.30;99.90;;;;;;5029729;28;20040;-71
2022/05/01 02:49:14;;;;;;;7.18;4.18;;;11.20;99.90;;;;;;5030046;28;20044;-71
2022/05/01 02:52:18;;;;;;;8.27;4.32;;;11.30;99.90;;;;;;5030173;28;20049;-71
2022/05/01 02:55:22;;;;;;;6.80;3.95;;;11.30;99.90;;;;;;5030050;28;20312;-71
2022/05/01 02:58:27;;;;;;;8.98;4.07;;;11.30;99.90;;;;;;5029709;28;20389;-71
2022/05/01 03:01:31;;;;;;;5.68;3.83;;;11.30;99.90;;;;;;5030380;28;20052;-71
2022/05/01 03:04:35;;;;;;;6.53;4.30;;;11.30;99.90;;;;;;5029661;28;20056;-71
2022/05/01 03:07:40;;;;;;;9.93;4.65;;;11.40;99.90;;;;;;5029433;28;20044;-72
2022/05/01 03:10:44;;;;;;;6.15;4.50;;;11.50;99.90;;;;;;5029886;28;20044;-72
2022/05/01 03:13:48;;;;;;;6.32;3.92;;;11.50;99.90;;;;;;5030216;28;20040;-71
2022/05/01 03:16:52;;;;;;;5.47;3.53;;;11.50;99.90;;;;;;5032330;28;20057;-71
2022/05/01 03:23:18;;;;;;;7.63;3.88;;;11.50;99.90;;;;;;5033562;28;20052;-71
2022/05/01 03:26:22;;;;;;;6.38;3.88;;;11.30;99.90;;;;;;5020865;28;20056;-71
2022/05/01 03:29:26;;;;;;;10.75;4.50;;;11.30;99.90;;;;;;5033308;28;20499;-71
2022/05/01 03:32:31;;;;;;;8.32;4.00;;;11.30;99.90;;;;;;5033547;28;20044;-71
2022/05/01 03:35:36;;;;;;;7.55;4.40;;;11.30;99.90;;;;;;5033526;28;20052;-71
2022/05/01 03:38:42;;;;;;;6.80;4.70;;;11.30;99.90;;;;;;5033260;28;20048;-71
2022/05/01 03:41:46;;;;;;;8.82;4.78;;;11.30;99.90;;;;;;5032856;28;20052;-71
2022/05/01 03:44:50;;;;;;;6.28;3.97;;;11.30;99.90;;;;;;5032711;28;20499;-71
2022/05/01 03:47:54;;;;;;;4.40;3.50;;;11.30;99.90;;;;;;5032803;28;20072;-71
2022/05/01 03:50:59;;;;;;;5.70;3.83;;;11.30;99.90;;;;;;5033093;28;20503;-71
2022/05/01 03:54:05;;;;;;;9.43;3.58;;;11.40;99.90;;;;;;5020890;28;20048;-71
2022/05/01 03:57:09;;;;;;;5.85;3.35;;;11.30;99.90;;;;;;5032711;28;20056;-71
2022/05/01 04:00:18;;;;;;;5.85;3.45;;;11.30;99.90;;;;;;5032641;28;20057;-71
2022/05/01 04:03:22;;;;;;;10.88;3.80;;;11.20;99.90;;;;;;5032809;28;20116;-71
2022/05/01 04:06:26;;;;;;;7.60;3.58;;;11.20;99.90;;;;;;5032091;28;20722;-71
2022/05/01 04:09:29;;;;;;;6.43;3.97;;;11.20;99.90;;;;;;5032660;28;20041;-71
2022/05/01 04:12:38;;;;;;;5.35;3.92;;;11.20;99.90;;;;;;5032731;28;20212;-71
2022/05/01 04:15:42;;;;;;;7.43;4.60;;;11.20;99.90;;;;;;5019858;28;20403;-71
2022/05/01 04:18:47;;;;;;;6.47;4.22;;;11.10;99.90;;;;;;5032471;28;20057;-71
2022/05/01 04:21:50;;;;;;;6.13;4.20;;;11.10;99.90;;;;;;5032601;28;20056;-71
2022/05/01 04:24:54;;;;;;;5.47;3.95;;;11.00;99.90;;;;;;5032370;28;20052;-71
2022/05/01 04:28:01;;;;;;;8.23;4.32;;;10.90;99.90;;;;;;5030081;28;20041;-71
2022/05/01 04:31:05;;;;;;;6.35;4.40;;;10.90;99.90;;;;;;5031564;28;20044;-71
2022/05/01 04:34:09;;;;;;;7.82;4.30;;;10.80;99.90;;;;;;5032173;28;20061;-71
2022/05/01 04:37:13;;;;;;;6.28;4.43;;;10.80;99.90;;;;;;5031372;28;20048;-71
2022/05/01 04:40:17;;;;;;;6.75;4.75;;;10.80;99.90;;;;;;5031221;28;20040;-71
2022/05/01 04:43:26;;;;;;;10.80;4.68;;;10.90;99.90;;;;;;5031828;28;20068;-71
2022/05/01 04:46:30;;;;;;;9.77;4.75;;;11.00;99.90;;;;;;5031172;28;20037;-71
2022/05/01 04:49:35;;;;;;;9.60;5.13;;;11.20;99.90;;;;;;5031709;28;20044;-71
2022/05/01 04:52:40;;;;;;;7.47;5.32;;;11.30;99.90;;;;;;5031836;28;20045;-71
2022/05/01 04:55:46;;;;;;;11.18;4.90;;;11.50;99.90;;;;;;5031441;28;20053;-71
2022/05/01 04:58:50;;;;;;;7.43;5.10;;;11.80;99.90;;;;;;5031720;28;20052;-71
2022/05/01 05:01:54;;;;;;;5.53;3.92;;;12.10;99.90;;;;;;5031045;28;20052;-72
2022/05/01 05:04:58;;;;;;;6.40;4.25;;;12.40;99.90;;;;;;5031300;28;20057;-72
2022/05/01 05:11:26;;;;;;;5.70;4.38;;;13.00;99.90;;;;;;5031270;28;20472;-71
2022/05/01 05:14:30;;;;;;;5.82;4.25;;;13.20;99.90;;;;;;5031357;28;20053;-72
2022/05/01 05:17:35;;;;;;;8.43;5.28;;;13.40;99.90;;;;;;5030943;28;20388;-72
2022/05/01 05:20:39;;;;;;;6.63;4.88;;;13.50;99.90;;;;;;5030870;28;20052;-72
2022/05/01 05:23:43;;;;;;;13.15;5.53;;;13.40;99.90;;;;;;5031000;28;20049;-71
2022/05/01 05:26:47;;;;;;;8.10;5.43;;;13.30;99.90;;;;;;5030402;28;20040;-72
2022/05/01 05:30:00;;;;;;;8.63;5.28;;;13.00;99.90;;;;;;5030838;28;20056;-72
2022/05/01 05:33:04;;;;;;;8.70;5.25;;;12.50;99.90;;;;;;5030669;28;20044;-72
2022/05/01 05:36:08;;;;;;;11.00;5.40;;;12.30;99.90;;;;;;5030310;28;20495;-71
2022/05/01 05:39:13;;;;;;;9.00;5.57;;;12.50;99.90;;;;;;5029837;28;20041;-72
2022/05/01 05:42:18;;;;;;;6.28;5.03;;;12.80;99.90;;;;;;5029784;28;20384;-72
2022/05/01 05:45:22;;;;;;;8.75;5.10;;;12.90;99.90;;;;;;5030628;28;20048;-72
2022/05/01 05:48:26;;;;;;;8.30;5.28;;;12.90;99.90;;;;;;5030305;28;20491;-71
2022/05/01 05:51:30;;;;;;;9.02;5.53;;;12.90;99.90;;;;;;5030974;28;20048;-71
2022/05/01 05:54:34;;;;;;;17.13;12.07;;;13.00;99.90;;;;;;5030619;28;20504;-71
2022/05/01 05:57:38;;;;;;;13.07;8.55;;;13.10;99.90;;;;;;5030237;28;20041;-72
2022/05/01 06:00:42;;;;;;;11.95;7.32;;;13.10;99.90;;;;;;5030455;28;20056;-72
2022/05/01 06:03:46;;;;;;;18.10;8.90;;;13.30;99.90;;;;;;5030533;28;20052;-72
2022/05/01 06:06:51;;;;;;;14.32;8.63;;;13.40;99.90;;;;;;5030084;28;20044;-72
2022/05/01 06:09:55;;;;;;;15.93;10.10;;;13.50;99.90;;;;;;5030767;28;20060;-72
2022/05/01 06:12:59;;;;;;;12.82;8.95;;;13.30;99.90;;;;;;5030406;28;20041;-72
2022/05/01 06:16:03;;;;;;;8.18;5.78;;;13.10;99.90;;;;;;5030180;28;20392;-72
2022/05/01 06:19:07;;;;;;;7.85;5.07;;;13.30;99.90;;;;;;5029726;28;20044;-72
2022/05/01 06:22:11;;;;;;;8.80;5.55;;;13.40;99.90;;;;;;5030077;28;20052;-72
2022/05/01 06:25:15;;;;;;;12.55;5.47;;;13.70;99.90;;;;;;5029859;28;20044;-71
2022/05/01 06:28:19;;;;;;;6.90;4.47;;;14.00;99.90;;;;;;5029557;28;20245;-71
2022/05/01 06:31:23;;;;;;;10.05;5.72;;;14.20;99.90;;;;;;5029758;28;20040;-71
2022/05/01 06:34:29;;;;;;;8.32;5.03;;;14.40;99.90;;;;;;5030305;28;20044;-72
2022/05/01 06:37:37;;;;;;;9.73;5.13;;;14.70;99.90;;;;;;5029543;28;20530;-72
2022/05/01 06:40:46;;;;;;;6.82;4.80;;;15.10;99.90;;;;;;5029931;28;20388;-72
2022/05/01 06:43:50;;;;;;;8.85;4.40;;;15.40;99.90;;;;;;5029981;28;20044;-72
2022/05/01 06:46:54;;;;;;;7.13;4.50;;;15.60;99.90;;;;;;5029665;28;20053;-72
2022/05/01 06:49:58;;;;;;;9.63;4.70;;;15.70;99.90;;;;;;5031370;28;20043;-72
2022/05/01 06:53:02;;;;;;;7.03;4.57;;;16.00;99.90;;;;;;5033989;28;20488;-72
2022/05/01 06:56:06;;;;;;;9.00;5.90;;;16.30;99.90;;;;;;5033719;28;20048;-72
2022/05/01 06:59:11;;;;;;;14.13;6.20;;;16.70;99.90;;;;;;5034061;28;20103;-72
2022/05/01 07:02:15;;;;;;;11.00;6.28;;;17.00;99.90;;;;;;5033693;28;20060;-72
2022/05/01 07:05:20;;;;;;;11.10;7.38;;;17.20;99.90;;;;;;5033794;28;20060;-72
2022/05/01 07:08:24;;;;;;;11.10;6.93;;;17.40;99.90;;;;;;5033651;28;20056;-72
2022/05/01 07:11:28;;;;;;;13.77;8.20;;;17.50;99.90;;;;;;5033705;28;20487;-72
2022/05/01 07:14:32;;;;;;;20.80;14.57;;;17.70;99.90;;;;;;5010126;28;20048;-72
2022/05/01 07:17:36;;;;;;;12.48;7.90;;;17.90;99.90;;;;;;5033230;28;20056;-72
2022/05/01 07:20:39;;;;;;;9.55;7.00;;;18.10;99.90;;;;;;5033602;28;20056;-72
2022/05/01 07:23:44;;;;;;;11.57;7.50;;;18.40;99.90;;;;;;5033618;28;20072;-72
2022/05/01 07:26:48;;;;;;;10.80;6.53;;;18.60;99.90;;;;;;5033108;28;20503;-72
2022/05/01 07:29:52;;;;;;;15.02;6.70;;;18.70;99.30;;;;;;5032909;28;20044;-72
2022/05/01 07:32:56;;;;;;;11.38;5.47;;;19.00;99.90;;;;;;5033527;28;20048;-72
2022/05/01 07:36:00;;;;;;;10.13;6.00;;;19.30;99.50;;;;;;5032883;28;20400;-72
2022/05/01 07:39:04;;;;;;;8.43;5.40;;;19.40;98.80;;;;;;5033233;28;20056;-72
2022/05/01 07:42:10;;;;;;;8.60;5.05;;;19.10;97.00;;;;;;5032807;28;20392;-71
2022/05/01 07:45:14;;;;;;;8.68;4.43;;;18.70;99.90;;;;;;5032980;28;20400;-72
2022/05/01 07:48:18;;;;;;;9.05;4.43;;;17.20;99.90;;;;;;5032226;28;20507;-72
2022/05/01 07:51:22;;;;;;;6.20;4.20;;;16.50;99.90;;;;;;5032971;28;20053;-72
2022/05/01 07:54:26;;;;;;;8.65;4.45;;;16.70;99.90;;;;;;5033003;28;20056;-72
2022/05/01 07:57:30;;;;;;;8.35;4.82;;;17.20;99.90;;;;;;5019818;28;20048;-72
2022/05/01 08:00:34;;;;;;;11.60;5.53;;;16.60;99.90;;;;;;5032526;28;20056;-72
2022/05/01 08:07:03;;;;;;;9.85;4.80;;;17.10;99.90;;;;;;5032174;28;20074;-72
2022/05/01 08:10:08;;;;;;;5.93;4.63;;;17.30;99.90;;;;;;5032455;28;20044;-72
2022/05/01 08:13:12;;;;;;;6.03;4.05;;;18.10;99.90;;;;;;5033501;28;20503;-72
2022/05/01 08:16:18;;;;;;;8.50;4.70;;;19.00;99.90;;;;;;5051694;28;20032;-72
2022/05/01 08:22:45;;;;;;;5.75;4.50;;;19.00;99.90;;;;;;5049108;28;20067;-72
2022/05/01 08:25:49;;;;;;;7.10;4.32;;;19.60;99.90;;;;;;5050224;28;20044;-72
2022/05/01 08:28:54;;;;;;;7.65;4.53;;;20.50;99.90;;;;;;5042357;28;20044;-72
2022/05/01 08:32:00;;;;;;;7.97;4.38;;;21.50;99.10;;;;;;5043006;28;20053;-73
2022/05/01 08:35:04;;;;;;;9.73;4.60;;;19.50;99.90;;;;;;5049565;28;20048;-72
2022/05/01 08:38:08;;;;;;;13.70;4.63;;;19.70;99.90;;;;;;5031408;28;20037;-72
2022/05/01 08:41:13;;;;;;;9.23;4.13;;;21.50;99.30;;;;;;5040748;28;20036;-72
2022/05/01 08:44:25;;;;;;;5.45;3.33;;;22.10;94.10;;;;;;5032220;28;20049;-72
2022/05/01 08:47:42;;;;;;;5.53;3.65;;;23.10;90.90;;;;;;5035167;28;20056;-73
2022/05/01 08:50:49;;;;;;;7.80;3.75;;;23.60;92.00;;;;;;5047575;28;20047;-72
2022/05/01 08:53:55;;;;;;;6.70;3.30;;;23.40;93.00;;;;;;5050450;28;20048;-73
2022/05/01 08:57:00;;;;;;;5.32;3.13;;;26.10;86.20;;;;;;5032577;28;20503;-72
2022/05/01 09:00:07;;;;;;;5.15;3.50;;;26.50;81.70;;;;;;5032078;28;20048;-72
2022/05/01 09:03:11;;;;;;;6.80;3.60;;;26.80;76.60;;;;;;5032561;28;20044;-72
2022/05/01 09:06:17;;;;;;;4.35;2.88;;;27.70;76.60;;;;;;5018931;28;20032;-72
2022/05/01 09:09:22;;;;;;;3.95;2.67;;;25.10;74.10;;;;;;5032026;28;20492;-72
2022/05/01 09:15:49;;;;;;;4.70;2.85;;;25.10;79.20;;;;;;5031550;28;20389;-71
2022/05/01 09:18:54;;;;;;;5.07;2.78;;;25.90;77.30;;;;;;5031645;28;20052;-73
2022/05/01 09:22:00;;;;;;;4.03;2.88;;;24.70;77.30;;;;;;5039442;28;20048;-73
2022/05/01 09:25:18;;;;;;;7.13;2.75;;;26.40;71.00;;;;;;5050111;28;20056;-73
2022/05/01 09:28:22;;;;;;;3.30;2.40;;;30.30;69.20;;;;;;5043718;28;20664;-73
2022/05/01 09:31:46;;;;;;;11.63;3.67;;;29.80;66.00;;;;;;5048832;28;20471;-73
2022/05/01 09:34:50;;;;;;;5.40;3.10;;;26.60;71.00;;;;;;5048264;28;20067;-73
2022/05/01 09:38:13;;;;;;;8.60;4.80;;;26.80;73.00;;;;;;5051116;28;20063;-73
2022/05/01 09:41:17;;;;;;;31.80;26.60;;;25.00;74.00;;;;;;5051442;28;20048;-73
2022/05/01 09:44:22;;;;;;;10.85;6.55;;;23.20;76.60;;;;;;5051147;28;20047;-74
2022/05/01 09:47:41;;;;;;;7.60;4.00;;;24.40;76.00;;;;;;5050897;28;20043;-73
2022/05/01 09:50:46;;;;;;;12.25;3.97;;;27.00;72.90;;;;;;5039047;28;20047;-73
2022/05/01 09:53:50;;;;;;;8.10;3.50;;;30.20;70.00;;;;;;5050914;28;20044;-74
2022/05/01 09:56:59;;;;;;;6.65;4.20;;;32.00;66.70;;;;;;5050329;28;20055;-73
2022/05/01 10:00:03;;;;;;;27.40;19.00;;;28.80;66.60;;;;;;5050215;28;20099;-73
2022/05/01 10:03:21;;;;;;;32.38;22.67;;;27.40;68.60;;;;;;5046576;28;20044;-73
2022/05/01 10:06:29;;;;;;;11.48;7.35;;;28.00;67.60;;;;;;5044630;28;20048;-73
2022/05/01 10:09:35;;;;;;;5.40;3.42;;;30.10;67.10;;;;;;5031011;28;20048;-73
2022/05/01 10:12:45;;;;;;;5.03;3.72;;;28.70;63.90;;;;;;5031233;28;20056;-74
2022/05/01 10:15:51;;;;;;;6.57;3.33;;;28.10;66.80;;;;;;5040643;28;20581;-74
2022/05/01 10:18:55;;;;;;;6.18;3.70;;;31.30;65.60;;;;;;5040738;28;20048;-74
2022/05/01 10:22:00;;;;;;;5.65;2.70;;;25.40;69.30;;;;;;5050853;28;20052;-74
2022/05/01 10:25:06;;;;;;;50.88;34.92;;;29.20;67.30;;;;;;5049940;28;20044;-73
2022/05/01 10:28:34;;;;;;;8.02;5.57;;;29.00;67.20;;;;;;5047368;28;20040;-74
2022/05/01 10:32:21;;;;;;;6.22;4.75;;;26.90;68.10;;;;;;5050759;28;20051;-73
2022/05/01 10:35:40;;;;;;;21.88;15.25;;;25.80;70.70;;;;;;5050764;28;20052;-74
2022/05/01 10:39:09;;;;;;;14.20;8.57;;;23.30;73.20;;;;;;5051124;28;20643;-74
2022/05/01 10:42:34;;;;;;;14.95;8.93;;;21.50;77.60;;;;;;5038052;28;20380;-73
2022/05/01 10:45:42;;;;;;;32.22;14.45;;;20.40;81.00;;;;;;5050285;28;20044;-73
2022/05/01 10:48:47;;;;;;;122.50;54.10;;;19.60;85.10;;;;;;5041813;28;20056;-73
2022/05/01 10:51:52;;;;;;;9.93;5.25;;;19.50;86.40;;;;;;5030704;28;20048;-73
2022/05/01 10:55:07;;;;;;;8.63;5.20;;;19.90;85.90;;;;;;5030534;28;20048;-73
2022/05/01 10:58:21;;;;;;;15.45;9.10;;;20.10;84.30;;;;;;5030421;28;20093;-74
2022/05/01 11:01:58;;;;;;;11.82;6.03;;;20.20;85.70;;;;;;5043579;28;20526;-74
2022/05/01 11:05:03;;;;;;;7.63;3.42;;;19.70;83.70;;;;;;5049606;28;20104;-73
2022/05/01 11:08:23;;;;;;;6.57;4.10;;;19.50;83.30;;;;;;5046537;28;20036;-73
2022/05/01 11:11:29;;;;;;;12.40;5.30;;;19.30;84.20;;;;;;5017994;28;20033;-72
2022/05/01 11:15:07;;;;;;;7.97;3.83;;;19.20;86.70;;;;;;5039640;28;20676;-73
2022/05/01 11:18:12;;;;;;;9.57;4.28;;;19.00;87.60;;;;;;5050106;28;20048;-73
2022/05/01 11:21:19;;;;;;;8.60;4.30;;;18.80;90.10;;;;;;5050831;28;20047;-72
2022/05/01 11:24:44;;;;;;;9.50;5.05;;;18.50;90.90;;;;;;5030913;28;20044;-74
2022/05/01 11:27:53;;;;;;;8.73;4.82;;;18.70;91.10;;;;;;5029787;28;20388;-73
2022/05/01 11:30:57;;;;;;;6.68;4.25;;;19.10;90.90;;;;;;5030947;28;20049;-69
2022/05/01 11:34:20;;;;;;;11.95;6.47;;;18.20;91.30;;;;;;5030652;28;20044;-67
2022/05/01 11:37:24;;;;;;;6.88;4.00;;;18.00;91.00;;;;;;5020064;28;20052;-69
2022/05/01 11:40:30;;;;;;;4.90;3.53;;;18.10;89.10;;;;;;5047501;28;20880;-70
2022/05/01 11:43:35;;;;;;;6.95;3.50;;;17.60;89.30;;;;;;5034110;28;20052;-68
2022/05/01 11:46:39;;;;;;;6.82;3.40;;;18.40;88.30;;;;;;5032865;28;20053;-68
2022/05/01 11:49:43;;;;;;;5.28;3.00;;;18.40;87.90;;;;;;5043373;28;20409;-69
2022/05/01 11:52:49;;;;;;;6.45;3.50;;;18.10;87.70;;;;;;5046120;28;20051;-73
2022/05/01 12:02:46;;;;;;;21.80;11.77;;;17.40;90.50;;;;;;5050317;28;20048;-68
2022/05/01 12:05:50;;;;;;;8.93;5.07;;;17.40;90.30;;;;;;5052459;28;20052;-68
2022/05/01 12:08:54;;;;;;;7.43;3.15;;;17.50;91.00;;;;;;5044885;28;20135;-69
2022/05/01 12:11:58;;;;;;;4.78;3.22;;;17.40;90.90;;;;;;5054018;28;20379;-73
2022/05/01 12:15:04;;;;;;;5.57;3.15;;;17.50;91.10;;;;;;5053341;28;20056;-73
2022/05/01 12:18:08;;;;;;;6.40;3.95;;;17.20;91.50;;;;;;5052047;28;20048;-73
2022/05/01 12:21:32;;;;;;;7.80;3.97;;;17.20;92.80;;;;;;5041451;28;20048;-73
2022/05/01 12:24:37;;;;;;;7.93;3.90;;;16.80;93.90;;;;;;5032928;28;20044;-73
2022/05/01 12:27:41;;;;;;;11.60;4.93;;;16.70;94.80;;;;;;5032030;28;20060;-72
2022/05/01 12:30:50;;;;;;;5.95;3.90;;;16.80;94.80;;;;;;5032643;28;20044;-73
2022/05/01 12:33:54;;;;;;;8.70;4.28;;;16.90;95.20;;;;;;5034851;28;20040;-73
2022/05/01 12:37:01;;;;;;;9.38;5.70;;;17.00;95.40;;;;;;5049809;28;20392;-72
2022/05/01 12:40:10;;;;;;;8.85;5.07;;;16.90;95.20;;;;;;5050195;28;20056;-73
2022/05/01 12:46:52;;;;;;;10.45;5.00;;;16.80;96.50;;;;;;5047336;28;20411;-73
2022/05/01 12:49:56;;;;;;;9.60;5.03;;;16.90;96.60;;;;;;5043778;28;20053;-73
2022/05/01 12:53:23;;;;;;;8.00;3.83;;;17.00;95.60;;;;;;5045206;28;20052;-73
2022/05/01 12:56:28;;;;;;;9.98;3.83;;;17.10;93.40;;;;;;5046385;28;20036;-73
2022/05/01 12:59:33;;;;;;;5.75;3.67;;;17.30;94.10;;;;;;5040237;28;20052;-73
2022/05/01 13:02:37;;;;;;;4.57;3.60;;;17.80;93.20;;;;;;5044794;28;20450;-74
2022/05/01 13:05:43;;;;;;;11.45;5.07;;;18.20;92.50;;;;;;5042072;28;20396;-73
2022/05/01 13:08:53;;;;;;;4.82;3.08;;;18.50;91.60;;;;;;5031342;28;20036;-73
2022/05/01 13:12:02;;;;;;;5.95;2.90;;;19.10;89.20;;;;;;5032388;28;20040;-74
2022/05/01 13:15:08;;;;;;;5.50;2.88;;;19.60;89.90;;;;;;5039098;28;20041;-73
2022/05/01 13:18:12;;;;;;;5.88;3.35;;;20.40;88.80;;;;;;5047819;28;20364;-73
2022/05/01 13:21:16;;;;;;;5.60;2.55;;;21.10;88.10;;;;;;5040116;28;20056;-73
2022/05/01 13:24:32;;;;;;;6.85;2.50;;;21.60;83.90;;;;;;5048437;28;20475;-74
2022/05/01 13:27:36;;;;;;;3.58;2.45;;;22.20;82.50;;;;;;5042906;28;20040;-73
2022/05/01 13:30:40;;;;;;;6.13;2.92;;;22.30;81.80;;;;;;5037171;28;20494;-73
2022/05/01 13:33:44;;;;;;;8.70;3.03;;;22.30;83.00;;;;;;5043291;28;20043;-73
2022/05/01 13:36:48;;;;;;;3.47;2.40;;;21.40;82.40;;;;;;5030266;28;20060;-72
2022/05/01 13:46:36;;;;;;;3.78;2.67;;;20.90;85.20;;;;;;5047559;28;20099;-73
2022/05/01 13:49:41;;;;;;;4.50;2.67;;;20.90;82.70;;;;;;5046773;28;20039;-73
2022/05/01 13:52:45;;;;;;;6.63;3.10;;;20.90;84.60;;;;;;5047286;28;20044;-73
2022/05/01 13:55:49;;;;;;;4.53;2.50;;;21.00;85.80;;;;;;5046326;28;20085;-73
2022/05/01 13:58:53;;;;;;;5.22;2.45;;;20.70;81.90;;;;;;5034488;28;20052;-73
2022/05/01 14:01:58;;;;;;;3.65;2.50;;;20.40;85.00;;;;;;5040010;28;20044;-73
2022/05/01 14:05:03;;;;;;;4.47;2.60;;;20.80;84.10;;;;;;5044030;28;20052;-73
2022/05/01 14:08:08;;;;;;;6.80;2.83;;;21.40;83.70;;;;;;5047747;28;20044;-73
2022/05/01 14:11:12;;;;;;;6.60;3.13;;;22.20;85.20;;;;;;5042690;28;20040;-73
2022/05/01 14:14:17;;;;;;;6.25;2.50;;;22.50;84.20;;;;;;5049908;28;20036;-71
2022/05/01 14:17:21;;;;;;;9.75;2.33;;;21.60;78.30;;;;;;5039840;28;20040;-73
2022/05/01 14:20:25;;;;;;;6.75;2.28;;;22.10;80.00;;;;;;5039268;28;20052;-73
2022/05/01 14:23:33;;;;;;;3.03;2.10;;;22.00;77.40;;;;;;5048855;28;20044;-74
2022/05/01 14:26:37;;;;;;;8.43;1.80;;;22.70;78.10;;;;;;5043895;28;20044;-73
2022/05/01 14:29:41;;;;;;;7.07;2.22;;;21.20;77.80;;;;;;5049150;28;20036;-74
2022/05/01 14:32:53;;;;;;;5.47;2.47;;;21.00;79.00;;;;;;5049896;28;20052;-73
2022/05/01 14:35:59;;;;;;;3.05;1.95;;;22.10;80.10;;;;;;5047022;28;20043;-73
2022/05/01 14:39:06;;;;;;;3.00;2.13;;;23.00;78.60;;;;;;5035749;28;20040;-73
2022/05/01 14:42:15;;;;;;;4.95;2.42;;;23.10;75.70;;;;;;5037760;28;20049;-74
2022/05/01 14:45:27;;;;;;;4.90;2.10;;;23.20;76.50;;;;;;5038652;28;20047;-73
2022/05/01 14:48:44;;;;;;;4.50;2.50;;;23.10;77.70;;;;;;5049192;28;20680;-73
2022/05/01 14:51:59;;;;;;;4.93;2.20;;;22.60;78.20;;;;;;5042956;28;20040;-73
2022/05/01 14:55:07;;;;;;;5.60;1.80;;;21.70;81.00;;;;;;5049004;28;20056;-74
2022/05/01 15:08:28;;;;;;;4.65;2.80;;;18.60;85.10;;;;;;5028969;28;20938;-74
2022/05/01 15:11:35;;;;;;;5.78;2.60;;;18.30;85.10;;;;;;5047146;28;20116;-73
2022/05/01 15:14:40;;;;;;;5.35;2.75;;;18.50;88.30;;;;;;5051268;28;20503;-74
2022/05/01 15:17:51;;;;;;;20.15;7.35;;;19.30;85.70;;;;;;5041245;28;20542;-73
2022/05/01 15:21:25;;;;;;;17.63;5.47;;;19.60;86.40;;;;;;5036579;28;20052;-74
2022/05/01 15:24:39;;;;;;;4.13;2.30;;;20.20;84.50;;;;;;5045939;28;20395;-74
2022/05/01 15:27:56;;;;;;;5.78;2.67;;;20.20;84.10;;;;;;5044685;28;20044;-74
2022/05/01 15:31:03;;;;;;;3.05;2.33;;;20.50;83.70;;;;;;5044480;28;20048;-74
2022/05/01 15:34:08;;;;;;;4.82;2.40;;;20.30;81.30;;;;;;5045959;28;20119;-74
2022/05/01 15:37:14;;;;;;;5.95;2.60;;;19.70;85.50;;;;;;5046722;28;20502;-74
2022/05/01 15:40:19;;;;;;;4.43;2.28;;;20.20;84.40;;;;;;5050998;28;20519;-74
2022/05/01 15:43:31;;;;;;;3.15;2.42;;;20.60;84.00;;;;;;5031998;28;20056;-74
2022/05/01 15:46:44;;;;;;;4.28;2.30;;;19.80;83.60;;;;;;5049148;28;20435;-70
2022/05/01 15:56:40;;;;;;;5.63;2.53;;;20.70;84.20;;;;;;5033099;28;20056;-70
2022/05/01 15:59:49;;;;;;;6.72;2.58;;;21.00;84.00;;;;;;5033283;28;20404;-70
2022/05/01 16:02:55;;;;;;;5.18;2.47;;;21.10;81.70;;;;;;5031088;28;20068;-70
2022/05/01 16:06:02;;;;;;;3.63;2.55;;;21.20;84.00;;;;;;5032089;28;20052;-70
2022/05/01 16:09:16;;;;;;;6.00;3.08;;;21.30;82.70;;;;;;5032491;28;20044;-70
2022/05/01 16:12:49;;;;;;;5.78;3.00;;;21.40;81.40;;;;;;5032658;28;20487;-69
2022/05/01 16:16:03;;;;;;;8.88;3.88;;;21.40;81.30;;;;;;5032104;28;20045;-70
2022/05/01 16:19:29;;;;;;;3.47;2.53;;;21.30;82.60;;;;;;5031793;28;20052;-70
2022/05/01 16:22:51;;;;;;;5.28;2.88;;;21.20;82.00;;;;;;5031980;28;20053;-69
2022/05/01 16:25:58;;;;;;;7.85;3.42;;;21.10;82.80;;;;;;5032288;28;20045;-69
2022/05/01 16:29:14;;;;;;;4.95;2.70;;;21.10;82.30;;;;;;5032209;28;20044;-70
2022/05/01 16:32:19;;;;;;;5.40;3.00;;;21.00;83.30;;;;;;5032298;28;20048;-70
2022/05/01 16:35:39;;;;;;;5.70;2.95;;;20.90;82.50;;;;;;5032337;28;20384;-70
2022/05/01 16:38:42;;;;;;;7.13;3.15;;;20.80;82.40;;;;;;5042828;28;20045;-70
2022/05/01 16:41:50;;;;;;;7.97;2.90;;;20.60;82.60;;;;;;5032329;28;20052;-70
2022/05/01 16:44:57;;;;;;;7.65;4.22;;;20.60;83.70;;;;;;5031930;28;20048;-69
2022/05/01 16:48:06;;;;;;;8.70;4.20;;;20.40;84.50;;;;;;5041607;28;20048;-70
2022/05/01 16:51:12;;;;;;;10.70;3.97;;;20.30;86.10;;;;;;5031870;28;20049;-69
2022/05/01 16:54:17;;;;;;;9.50;3.63;;;20.10;86.30;;;;;;5031418;28;20044;-70
2022/05/01 16:57:23;;;;;;;5.45;3.30;;;19.80;87.50;;;;;;5031187;28;20072;-70
2022/05/01 17:00:29;;;;;;;9.50;3.45;;;19.50;87.70;;;;;;5031584;28;20056;-70
2022/05/01 17:03:48;;;;;;;4.95;3.25;;;19.30;88.00;;;;;;5031094;28;20052;-70
2022/05/01 17:07:06;;;;;;;9.95;4.22;;;19.00;89.20;;;;;;5030780;28;20526;-70
2022/05/01 17:10:30;;;;;;;9.40;3.80;;;18.70;89.40;;;;;;5031634;28;20376;-70